Strona główna
METAR-TAF:

METAR-TAF

Lotnisko :

Florennes, Belgia

Szerokość geograficzna: 50-14N, Długość geograficzna: 004-39E, wysokość: 279 m

Aktualna obserwacja pogody

Raport powstał 43 minut temu, godzina 23:55 UTC
Wiatr 3 kt od wschód
Temperatura 7°C
Wilgotność 57%
Ciśnienie 1022 hPa
Widzialność 10 km lub więcej

METAR: EBFS 042355Z AUTO 10003KT 9999 NCD 07/M01 Q1022 BLU

czas: 02:38 (00:38 UTC)


TAF: brakujący

Obserwacja i prognoza pogody dla ponad 4000 lotnisk (raport METAR i TAF).

Dostępne stacje oznaczono żółtymi i czerwonymi punktami na mapie.

Najedź kursorem aby zobaczyć nazwę stacji.

Kliknij aby zobaczyć obserwacje i prognozy pogody.

Aby zmienić mapę: kliknij na zielony przycisk z czarnym krzyżykiem, aby powiększyć; na zielony przycisk z myślnikiem, aby pomniejszyć; na zielone strzałki, aby przejść do map sąsiednich.


METAR-TAF: